createdAt,value
2022-08-26T00:00:57.199Z,17.80
2022-08-26T00:03:26.661Z,17.70
2022-08-26T00:05:56.343Z,17.70
2022-08-26T00:08:27.211Z,17.60
2022-08-26T00:10:55.922Z,17.50
2022-08-26T00:13:28.646Z,17.50
2022-08-26T00:15:59.775Z,17.40
2022-08-26T00:18:28.833Z,17.40
2022-08-26T00:21:06.123Z,17.40
2022-08-26T00:23:35.338Z,17.30
2022-08-26T00:26:04.765Z,17.30
2022-08-26T00:28:34.506Z,17.20
2022-08-26T00:31:04.896Z,17.20
2022-08-26T00:33:35.629Z,17.10
2022-08-26T00:36:05.346Z,17.10
2022-08-26T00:38:34.061Z,17.00
2022-08-26T00:41:02.829Z,17.00
2022-08-26T00:43:46.322Z,16.90
2022-08-26T00:46:21.911Z,16.90
2022-08-26T00:48:55.399Z,16.80
2022-08-26T00:51:29.777Z,16.80
2022-08-26T00:54:06.668Z,16.80
2022-08-26T00:56:47.881Z,16.80
2022-08-26T00:59:19.242Z,16.80
2022-08-26T01:01:49.509Z,16.70
2022-08-26T01:04:21.208Z,16.80
2022-08-26T01:06:52.567Z,16.70
2022-08-26T01:09:23.399Z,16.70
2022-08-26T01:11:55.867Z,16.70
2022-08-26T01:14:27.402Z,16.70
2022-08-26T01:16:57.591Z,16.60
2022-08-26T01:19:33.217Z,16.60
2022-08-26T01:22:07.945Z,16.60
2022-08-26T01:24:39.403Z,16.50
2022-08-26T01:27:12.132Z,16.50
2022-08-26T01:29:44.550Z,16.40
2022-08-26T01:32:19.748Z,16.40
2022-08-26T01:34:49.803Z,16.40
2022-08-26T01:37:24.106Z,16.40
2022-08-26T01:39:57.309Z,16.30
2022-08-26T01:42:27.527Z,16.30
2022-08-26T01:45:00.688Z,16.30
2022-08-26T01:47:32.795Z,16.30
2022-08-26T01:50:04.486Z,16.20
2022-08-26T01:52:37.274Z,16.20
2022-08-26T01:55:09.325Z,16.20
2022-08-26T01:57:38.431Z,16.20
2022-08-26T02:00:09.741Z,16.10
2022-08-26T02:02:39.230Z,16.10
2022-08-26T02:05:11.208Z,16.10
2022-08-26T02:07:40.974Z,16.10
2022-08-26T02:10:12.861Z,16.00
2022-08-26T02:12:42.684Z,16.00
2022-08-26T02:18:56.381Z,16.00
2022-08-26T02:21:25.853Z,16.00
2022-08-26T02:23:56.406Z,15.90
2022-08-26T02:26:27.283Z,15.90
2022-08-26T02:29:01.827Z,15.90
2022-08-26T02:31:31.053Z,15.90
2022-08-26T02:34:10.800Z,15.90
2022-08-26T02:36:39.827Z,15.90
2022-08-26T02:39:09.066Z,15.90
2022-08-26T02:41:44.990Z,15.90
2022-08-26T02:44:14.032Z,15.80
2022-08-26T02:46:47.054Z,15.80
2022-08-26T02:49:16.990Z,15.80
2022-08-26T02:51:45.925Z,15.80
2022-08-26T02:54:15.528Z,15.70
2022-08-26T02:56:46.269Z,15.80
2022-08-26T02:59:15.580Z,15.70
2022-08-26T03:01:45.443Z,15.80
2022-08-26T03:04:15.189Z,15.80
2022-08-26T03:06:47.061Z,15.80
2022-08-26T03:09:21.957Z,15.70
2022-08-26T03:11:55.657Z,15.80
2022-08-26T03:14:25.242Z,15.70
2022-08-26T03:16:54.953Z,15.80
2022-08-26T03:19:26.887Z,15.70
2022-08-26T03:21:57.888Z,15.70
2022-08-26T03:24:27.678Z,15.70
2022-08-26T03:26:57.949Z,15.70
2022-08-26T03:29:44.226Z,15.70
2022-08-26T03:32:18.398Z,15.70
2022-08-26T03:34:47.698Z,15.70
2022-08-26T03:37:16.526Z,15.60
2022-08-26T03:39:46.026Z,15.60
2022-08-26T03:42:16.310Z,15.60
2022-08-26T03:44:45.122Z,15.60
2022-08-26T03:47:13.720Z,15.60
2022-08-26T03:49:42.378Z,15.50
2022-08-26T03:52:11.022Z,15.50
2022-08-26T03:54:39.983Z,15.50
2022-08-26T03:57:08.864Z,15.50
2022-08-26T03:59:38.920Z,15.60
2022-08-26T04:02:11.645Z,15.60
2022-08-26T04:04:40.623Z,15.70
2022-08-26T04:07:09.382Z,15.70
2022-08-26T04:09:38.039Z,15.80
2022-08-26T04:12:10.036Z,15.90
2022-08-26T04:14:40.529Z,15.90
2022-08-26T04:17:09.198Z,16.00
2022-08-26T04:19:37.910Z,16.20
2022-08-26T04:22:06.804Z,16.30
2022-08-26T04:24:36.445Z,16.40
2022-08-26T04:27:05.163Z,16.50
2022-08-26T04:29:36.790Z,16.60
2022-08-26T04:32:09.879Z,16.80
2022-08-26T04:34:39.123Z,17.00
2022-08-26T04:37:09.248Z,17.00
2022-08-26T04:39:38.611Z,17.10
2022-08-26T04:42:07.870Z,17.10
2022-08-26T04:44:39.048Z,17.20
2022-08-26T04:47:09.902Z,17.30
2022-08-26T04:49:40.081Z,17.40
2022-08-26T04:52:10.100Z,17.50
2022-08-26T04:54:39.219Z,17.50
2022-08-26T04:57:10.616Z,17.50
2022-08-26T04:59:39.652Z,17.60
2022-08-26T05:02:09.697Z,17.70
2022-08-26T05:04:38.440Z,17.70
2022-08-26T05:07:08.213Z,17.80
2022-08-26T05:09:38.504Z,17.90
2022-08-26T05:12:07.674Z,18.00
2022-08-26T05:14:37.939Z,18.10
2022-08-26T05:17:06.755Z,18.20
2022-08-26T05:19:37.355Z,18.30
2022-08-26T05:22:13.246Z,18.40
2022-08-26T05:24:42.072Z,18.60
2022-08-26T05:27:11.793Z,18.80
2022-08-26T05:29:41.717Z,19.00
2022-08-26T05:32:11.253Z,19.20
2022-08-26T05:34:42.947Z,19.40
2022-08-26T05:37:13.632Z,19.60
2022-08-26T05:39:43.568Z,19.90
2022-08-26T05:42:20.372Z,20.10
2022-08-26T05:44:55.930Z,20.30
2022-08-26T05:47:25.058Z,20.50
2022-08-26T05:49:56.253Z,20.60
2022-08-26T05:52:26.101Z,20.70
2022-08-26T05:54:55.459Z,20.80
2022-08-26T05:57:24.073Z,20.90
2022-08-26T05:59:53.277Z,21.00
2022-08-26T06:02:22.019Z,21.10
2022-08-26T06:04:51.386Z,21.20
2022-08-26T06:07:42.492Z,21.30
2022-08-26T06:10:32.370Z,21.60
2022-08-26T06:13:09.278Z,21.80
2022-08-26T06:15:46.554Z,22.00
2022-08-26T06:18:18.274Z,22.20
2022-08-26T06:20:49.523Z,22.30
2022-08-26T06:23:47.578Z,22.50
2022-08-26T06:26:17.588Z,22.60
2022-08-26T06:28:46.486Z,22.70
2022-08-26T06:31:16.158Z,22.80
2022-08-26T06:33:45.400Z,22.90
2022-08-26T06:36:19.524Z,22.90
2022-08-26T06:38:51.095Z,23.00
2022-08-26T06:41:21.266Z,23.00
2022-08-26T06:43:50.196Z,23.00
2022-08-26T06:46:20.645Z,23.00
2022-08-26T06:48:50.458Z,23.10
2022-08-26T06:51:22.356Z,23.10
2022-08-26T06:53:55.460Z,23.10
2022-08-26T06:56:26.730Z,23.10
2022-08-26T06:58:55.915Z,23.00
2022-08-26T07:01:26.703Z,23.10
2022-08-26T07:03:57.720Z,23.10
2022-08-26T07:06:27.666Z,23.00
2022-08-26T07:09:05.061Z,23.00
2022-08-26T07:11:35.103Z,23.00
2022-08-26T07:14:04.559Z,23.10
2022-08-26T07:16:33.212Z,23.20
2022-08-26T07:19:03.490Z,23.20
2022-08-26T07:21:41.743Z,23.20
2022-08-26T07:24:12.355Z,23.20
2022-08-26T07:26:42.948Z,23.40
2022-08-26T07:29:12.898Z,23.40
2022-08-26T07:31:42.979Z,23.50
2022-08-26T07:34:13.928Z,23.50
2022-08-26T07:36:42.766Z,23.60
2022-08-26T07:39:12.757Z,23.60
2022-08-26T07:41:41.541Z,23.60
2022-08-26T07:44:11.480Z,23.70
2022-08-26T07:46:40.342Z,23.90
2022-08-26T07:49:09.237Z,23.90
2022-08-26T07:51:38.555Z,23.90
2022-08-26T07:54:07.619Z,23.80
2022-08-26T07:56:38.338Z,23.90
2022-08-26T07:59:13.835Z,23.90
2022-08-26T08:01:45.183Z,24.00
2022-08-26T08:04:14.487Z,24.10
2022-08-26T08:06:44.005Z,24.10
2022-08-26T08:09:13.167Z,24.10
2022-08-26T08:11:43.527Z,24.10
2022-08-26T08:14:13.597Z,24.20
2022-08-26T08:16:45.993Z,24.40
2022-08-26T08:19:16.202Z,24.50
2022-08-26T08:21:45.011Z,24.40
2022-08-26T08:24:13.757Z,24.50
2022-08-26T08:26:44.395Z,24.50
2022-08-26T08:29:13.318Z,24.60
2022-08-26T08:31:58.449Z,24.70
2022-08-26T08:34:28.704Z,24.80
2022-08-26T08:36:58.042Z,24.80
2022-08-26T08:39:27.209Z,24.90
2022-08-26T08:42:23.528Z,25.00
2022-08-26T08:44:57.555Z,25.00
2022-08-26T08:47:34.472Z,25.10
2022-08-26T08:50:13.209Z,25.40
2022-08-26T08:52:46.188Z,25.60
2022-08-26T08:55:18.292Z,25.70
2022-08-26T08:58:02.201Z,25.90
2022-08-26T09:00:40.083Z,26.20
2022-08-26T09:03:19.015Z,26.50
2022-08-26T09:05:51.680Z,26.90
2022-08-26T09:08:27.631Z,27.20
2022-08-26T09:10:59.806Z,27.50
2022-08-26T09:13:31.803Z,27.70
2022-08-26T09:16:09.896Z,27.90
2022-08-26T09:18:55.499Z,28.00
2022-08-26T09:21:26.286Z,28.10
2022-08-26T09:23:57.330Z,28.20
2022-08-26T09:26:30.765Z,28.20
2022-08-26T09:29:03.051Z,28.20
2022-08-26T09:31:35.484Z,28.20
2022-08-26T09:34:17.481Z,28.20
2022-08-26T09:36:48.928Z,28.20
2022-08-26T09:39:39.341Z,28.20
2022-08-26T09:42:12.015Z,28.10
2022-08-26T09:45:00.357Z,28.10
2022-08-26T09:47:35.143Z,28.00
2022-08-26T09:50:12.344Z,28.10
2022-08-26T09:52:42.898Z,28.10
2022-08-26T09:55:15.607Z,28.10
2022-08-26T09:57:51.102Z,28.30
2022-08-26T10:00:31.139Z,28.30
2022-08-26T10:03:01.948Z,28.40
2022-08-26T10:05:35.989Z,28.60
2022-08-26T10:08:23.246Z,28.70
2022-08-26T10:10:53.122Z,28.90
2022-08-26T10:13:29.540Z,29.00
2022-08-26T10:16:10.643Z,29.10
2022-08-26T10:18:43.896Z,29.00
2022-08-26T10:21:18.046Z,29.30
2022-08-26T10:23:50.600Z,29.40
2022-08-26T10:26:26.779Z,29.40
2022-08-26T10:29:06.673Z,29.50
2022-08-26T10:31:42.677Z,29.50
2022-08-26T10:34:12.587Z,29.60
2022-08-26T10:37:14.866Z,29.60
2022-08-26T10:39:46.822Z,29.70
2022-08-26T10:42:23.654Z,29.80
2022-08-26T10:44:58.468Z,29.90
2022-08-26T10:47:36.325Z,30.00
2022-08-26T10:50:07.074Z,30.10
2022-08-26T10:52:51.056Z,30.20
2022-08-26T10:55:27.753Z,30.20
2022-08-26T10:58:04.720Z,30.10
2022-08-26T11:01:10.445Z,30.00
2022-08-26T11:03:47.074Z,30.00
2022-08-26T11:06:29.887Z,29.90
2022-08-26T11:09:00.008Z,30.00
2022-08-26T11:11:50.506Z,30.00
2022-08-26T11:14:53.659Z,30.00
2022-08-26T11:18:00.449Z,30.00
2022-08-26T11:20:41.869Z,30.00
2022-08-26T11:23:40.371Z,29.90
2022-08-26T11:26:27.478Z,29.90
2022-08-26T11:29:12.132Z,30.00
2022-08-26T11:31:57.626Z,30.00
2022-08-26T11:34:56.380Z,29.90
2022-08-26T11:37:33.037Z,29.90
2022-08-26T11:40:04.366Z,29.90
2022-08-26T11:42:39.759Z,29.90
2022-08-26T11:45:19.545Z,29.90
2022-08-26T11:47:49.446Z,30.00
2022-08-26T11:50:23.601Z,30.00
2022-08-26T11:52:56.273Z,30.00
2022-08-26T11:55:26.217Z,30.10
2022-08-26T11:58:00.304Z,30.00
2022-08-26T12:00:33.376Z,30.00
2022-08-26T12:03:07.852Z,30.00
2022-08-26T12:05:43.622Z,30.00
2022-08-26T12:08:18.040Z,30.00
2022-08-26T12:10:48.527Z,29.90
2022-08-26T12:13:23.468Z,29.80
2022-08-26T12:16:00.074Z,29.80
2022-08-26T12:18:32.788Z,29.80
2022-08-26T12:21:12.962Z,29.70
2022-08-26T12:23:46.742Z,29.70
2022-08-26T12:26:24.047Z,29.80
2022-08-26T12:28:57.439Z,30.00
2022-08-26T12:31:31.488Z,30.10
2022-08-26T12:34:02.612Z,30.20
2022-08-26T12:36:34.615Z,30.40
2022-08-26T12:39:16.885Z,30.50
2022-08-26T12:41:50.255Z,30.60
2022-08-26T12:44:53.965Z,30.70
2022-08-26T12:47:40.079Z,30.90
2022-08-26T12:50:19.559Z,31.00
2022-08-26T12:52:59.077Z,31.30
2022-08-26T12:55:39.085Z,31.50
2022-08-26T12:58:30.290Z,31.80
2022-08-26T13:01:20.509Z,32.00
2022-08-26T13:03:49.777Z,32.20
2022-08-26T13:06:27.663Z,32.20
2022-08-26T13:08:58.454Z,32.10
2022-08-26T13:11:32.544Z,32.10
2022-08-26T13:14:03.225Z,31.90
2022-08-26T13:16:36.989Z,31.90
2022-08-26T13:19:25.645Z,31.80
2022-08-26T13:21:56.951Z,31.70
2022-08-26T13:24:30.141Z,31.60
2022-08-26T13:27:00.876Z,31.60
2022-08-26T13:29:29.662Z,31.50
2022-08-26T13:32:00.413Z,31.60
2022-08-26T13:34:29.795Z,31.60
2022-08-26T13:36:58.714Z,31.60
2022-08-26T13:39:28.481Z,31.60
2022-08-26T13:41:57.310Z,31.60
2022-08-26T13:44:27.663Z,31.60
2022-08-26T13:46:56.729Z,31.60
2022-08-26T13:49:25.617Z,31.50
2022-08-26T13:51:54.423Z,31.40
2022-08-26T13:54:23.120Z,31.20
2022-08-26T13:56:52.115Z,31.10
2022-08-26T13:59:20.882Z,31.00
2022-08-26T14:01:51.129Z,30.90
2022-08-26T14:04:23.328Z,30.80
2022-08-26T14:06:56.242Z,30.60
2022-08-26T14:09:24.957Z,30.60
2022-08-26T14:11:54.224Z,30.60
2022-08-26T14:14:23.718Z,30.60
2022-08-26T14:16:59.375Z,30.50
2022-08-26T14:19:30.245Z,30.50
2022-08-26T14:22:01.048Z,30.70
2022-08-26T14:24:30.613Z,30.60
2022-08-26T14:26:59.698Z,30.70
2022-08-26T14:29:28.576Z,30.60
2022-08-26T14:32:01.580Z,30.70
2022-08-26T14:34:31.614Z,30.70
2022-08-26T14:37:07.299Z,30.70
2022-08-26T14:39:37.441Z,30.80
2022-08-26T14:42:06.732Z,30.80
2022-08-26T14:44:35.742Z,30.70
2022-08-26T14:47:08.083Z,30.70
2022-08-26T14:49:37.145Z,30.70
2022-08-26T14:52:06.299Z,30.50
2022-08-26T14:54:33.952Z,30.40
2022-08-26T14:57:06.341Z,30.40
2022-08-26T14:59:37.219Z,30.40
2022-08-26T15:02:08.991Z,30.40
2022-08-26T15:04:43.276Z,30.50
2022-08-26T15:07:12.661Z,30.50
2022-08-26T15:09:41.761Z,30.50
2022-08-26T15:12:10.736Z,30.60
2022-08-26T15:14:39.965Z,30.60
2022-08-26T15:17:10.435Z,30.70
2022-08-26T15:19:39.830Z,30.70
2022-08-26T15:22:08.589Z,30.70
2022-08-26T15:24:37.352Z,30.80
2022-08-26T15:27:06.113Z,30.70
2022-08-26T15:29:36.207Z,30.60
2022-08-26T15:32:05.934Z,30.50
2022-08-26T15:34:36.116Z,30.30
2022-08-26T15:37:05.699Z,30.20
2022-08-26T15:39:34.459Z,30.10
2022-08-26T15:42:03.453Z,30.00
2022-08-26T15:44:34.264Z,29.80
2022-08-26T15:47:03.145Z,29.70
2022-08-26T15:49:32.359Z,29.60
2022-08-26T15:52:05.323Z,29.60
2022-08-26T15:54:34.646Z,29.50
2022-08-26T15:57:10.774Z,29.40
2022-08-26T15:59:41.767Z,29.30
2022-08-26T16:02:10.862Z,29.10
2022-08-26T16:04:39.609Z,28.90
2022-08-26T16:07:10.419Z,28.80
2022-08-26T16:09:39.270Z,28.70
2022-08-26T16:12:08.182Z,28.70
2022-08-26T16:14:37.182Z,28.60
2022-08-26T16:17:05.980Z,28.60
2022-08-26T16:19:34.677Z,28.50
2022-08-26T16:22:03.355Z,28.50
2022-08-26T16:24:33.675Z,28.50
2022-08-26T16:27:02.658Z,28.40
2022-08-26T16:29:32.896Z,28.50
2022-08-26T16:32:08.747Z,28.40
2022-08-26T16:34:37.834Z,28.30
2022-08-26T16:37:16.062Z,28.30
2022-08-26T16:39:46.196Z,28.30
2022-08-26T16:42:15.621Z,28.20
2022-08-26T16:44:45.767Z,28.10
2022-08-26T16:47:16.170Z,28.10
2022-08-26T16:49:45.009Z,28.00
2022-08-26T16:52:14.235Z,28.00
2022-08-26T16:54:43.463Z,27.80
2022-08-26T16:57:16.511Z,27.70
2022-08-26T16:59:45.306Z,27.70
2022-08-26T17:02:14.292Z,27.60
2022-08-26T17:04:46.152Z,27.50
2022-08-26T17:07:18.994Z,27.50
2022-08-26T17:09:47.861Z,27.40
2022-08-26T17:12:18.006Z,27.30
2022-08-26T17:14:46.862Z,27.10
2022-08-26T17:17:15.760Z,27.10
2022-08-26T17:19:47.274Z,26.90
2022-08-26T17:22:16.787Z,26.80
2022-08-26T17:24:45.579Z,26.60
2022-08-26T17:27:14.876Z,26.50
2022-08-26T17:29:44.982Z,26.40
2022-08-26T17:32:13.743Z,26.20
2022-08-26T17:34:42.593Z,26.10
2022-08-26T17:37:14.134Z,25.90
2022-08-26T17:39:53.398Z,25.80
2022-08-26T17:42:22.272Z,25.60
2022-08-26T17:45:02.076Z,25.50
2022-08-26T17:47:30.850Z,25.40
2022-08-26T17:50:01.734Z,25.20
2022-08-26T17:52:31.147Z,25.10
2022-08-26T17:55:01.515Z,25.00
2022-08-26T17:57:31.290Z,24.90
2022-08-26T18:00:01.595Z,24.80
2022-08-26T18:05:04.461Z,24.70
2022-08-26T18:07:34.932Z,24.40
2022-08-26T18:10:16.250Z,24.30
2022-08-26T18:12:45.417Z,24.20
2022-08-26T18:15:17.769Z,24.00
2022-08-26T18:17:46.984Z,23.90
2022-08-26T18:20:18.335Z,23.80
2022-08-26T18:22:48.647Z,23.60
2022-08-26T18:25:18.458Z,23.50
2022-08-26T18:27:47.350Z,23.50
2022-08-26T18:30:21.601Z,23.40
2022-08-26T18:32:52.335Z,23.30
2022-08-26T18:35:21.668Z,23.10
2022-08-26T18:37:50.349Z,23.00
2022-08-26T18:40:19.055Z,22.90
2022-08-26T18:42:49.341Z,22.80
2022-08-26T18:45:25.605Z,22.70
2022-08-26T18:47:55.564Z,22.60
2022-08-26T18:50:24.575Z,22.60
2022-08-26T18:52:53.312Z,22.50
2022-08-26T18:55:22.506Z,22.50
2022-08-26T18:57:51.473Z,22.40
2022-08-26T19:00:20.449Z,22.30
2022-08-26T19:02:51.830Z,22.20
2022-08-26T19:05:21.301Z,22.10
2022-08-26T19:07:49.990Z,22.00
2022-08-26T19:10:18.780Z,22.00
2022-08-26T19:12:47.506Z,21.90
2022-08-26T19:15:21.258Z,21.80
2022-08-26T19:17:51.330Z,21.70
2022-08-26T19:20:20.231Z,21.70
2022-08-26T19:22:49.038Z,21.60
2022-08-26T19:25:18.680Z,21.60
2022-08-26T19:27:48.114Z,21.50
2022-08-26T19:30:17.599Z,21.50
2022-08-26T19:32:48.601Z,21.50
2022-08-26T19:35:18.795Z,21.50
2022-08-26T19:37:48.221Z,21.40
2022-08-26T19:40:17.316Z,21.30
2022-08-26T19:42:47.606Z,21.30
2022-08-26T19:45:24.669Z,21.30
2022-08-26T19:47:54.373Z,21.20
2022-08-26T19:50:26.483Z,21.10
2022-08-26T19:52:55.357Z,21.10
2022-08-26T19:55:26.334Z,21.10
2022-08-26T19:57:55.423Z,21.00
2022-08-26T20:00:29.471Z,21.20
2022-08-26T20:02:58.272Z,20.90
2022-08-26T20:05:29.307Z,20.90
2022-08-26T20:07:58.179Z,20.90
2022-08-26T20:10:27.093Z,20.80
2022-08-26T20:12:58.755Z,20.80
2022-08-26T20:15:28.428Z,20.70
2022-08-26T20:17:58.029Z,20.60
2022-08-26T20:20:45.591Z,20.60
2022-08-26T20:23:17.084Z,20.60
2022-08-26T20:25:46.890Z,20.60
2022-08-26T20:28:19.115Z,20.50
2022-08-26T20:30:48.068Z,20.50
2022-08-26T20:33:17.423Z,20.50
2022-08-26T20:35:50.691Z,20.40
2022-08-26T20:38:21.505Z,20.30
2022-08-26T20:40:51.999Z,20.40
2022-08-26T20:43:24.987Z,20.40
2022-08-26T20:45:54.571Z,20.40
2022-08-26T20:48:23.801Z,20.40
2022-08-26T20:50:57.686Z,20.40
2022-08-26T20:53:27.375Z,20.40
2022-08-26T20:56:00.723Z,20.30
2022-08-26T20:58:30.018Z,20.30
2022-08-26T21:00:59.877Z,20.30
2022-08-26T21:03:31.261Z,20.30
2022-08-26T21:06:04.934Z,20.30
2022-08-26T21:08:33.621Z,20.30
2022-08-26T21:11:02.519Z,20.30
2022-08-26T21:13:48.334Z,20.30
2022-08-26T21:16:22.994Z,20.30
2022-08-26T21:18:51.795Z,20.20
2022-08-26T21:21:24.934Z,20.20
2022-08-26T21:23:55.501Z,20.20
2022-08-26T21:26:26.124Z,20.20
2022-08-26T21:28:55.346Z,20.10
2022-08-26T21:31:26.306Z,20.10
2022-08-26T21:33:55.391Z,20.00
2022-08-26T21:36:25.628Z,20.00
2022-08-26T21:38:56.459Z,20.00
2022-08-26T21:41:26.865Z,20.00
2022-08-26T21:43:59.473Z,20.00
2022-08-26T21:46:31.388Z,20.00
2022-08-26T21:49:02.400Z,20.10
2022-08-26T21:51:35.710Z,20.00
2022-08-26T21:54:10.487Z,20.00
2022-08-26T21:56:44.863Z,20.00
2022-08-26T21:59:14.921Z,20.00
2022-08-26T22:01:43.781Z,19.90
2022-08-26T22:04:12.501Z,20.00
2022-08-26T22:06:44.946Z,19.90
2022-08-26T22:09:15.564Z,20.00
2022-08-26T22:11:45.949Z,19.90
2022-08-26T22:14:15.228Z,20.00
2022-08-26T22:16:48.978Z,20.00
2022-08-26T22:19:20.480Z,20.00
2022-08-26T22:21:55.535Z,20.00
2022-08-26T22:24:27.007Z,19.90
2022-08-26T22:26:57.185Z,19.90
2022-08-26T22:29:27.365Z,19.90
2022-08-26T22:31:57.565Z,19.90
2022-08-26T22:34:26.451Z,19.90
2022-08-26T22:36:57.139Z,19.80
2022-08-26T22:39:28.100Z,19.70
2022-08-26T22:41:57.454Z,19.70
2022-08-26T22:44:26.864Z,19.60
2022-08-26T22:46:55.911Z,19.60
2022-08-26T22:49:25.225Z,19.60
2022-08-26T22:51:54.149Z,19.50
2022-08-26T22:54:24.330Z,19.50
2022-08-26T22:56:53.691Z,19.50
2022-08-26T22:59:22.406Z,19.40
2022-08-26T23:01:51.897Z,19.30
2022-08-26T23:04:21.035Z,19.30
2022-08-26T23:06:49.883Z,19.30
2022-08-26T23:09:20.082Z,19.20
2022-08-26T23:11:51.957Z,19.30
2022-08-26T23:14:21.241Z,19.20
2022-08-26T23:16:50.231Z,19.10
2022-08-26T23:19:21.137Z,19.10
2022-08-26T23:21:50.914Z,19.00
2022-08-26T23:24:19.804Z,19.00
2022-08-26T23:26:48.563Z,19.00
2022-08-26T23:29:18.760Z,18.90
2022-08-26T23:31:47.594Z,18.90
2022-08-26T23:34:34.283Z,18.80
2022-08-26T23:37:04.870Z,18.70
2022-08-26T23:39:36.519Z,18.60
2022-08-26T23:42:06.808Z,18.60
2022-08-26T23:44:37.043Z,18.60
2022-08-26T23:47:06.650Z,18.60
2022-08-26T23:49:36.161Z,18.60
2022-08-26T23:52:24.061Z,18.50
2022-08-26T23:54:53.141Z,18.50
2022-08-26T23:57:24.218Z,18.50
2022-08-26T23:59:54.920Z,18.50
